AVA9294 SKPS-SKCL
Flight info
| Callsign | AVA9294 |
|---|---|
| Flight time | 0h 45m |
| Altitude | 21000 |
| Route | MER7 MER G675 ISOPA ISOPA4A |
| Aircraft | A320/M-SDE3FGHIRWY/LB1 |
Departure
| Time | 2026-04-29 13:35 |
|---|---|
| Airport | Antonio Nariño Airport (SKPS) |
Arrival
| Time | 2026-04-29 14:20 |
|---|---|
| Airport | Alfonso Bonilla Aragon International Airport (SKCL) |
| Time | Latitude | Longitude | Altitude | Speed | Heading |
|---|---|---|---|---|---|
| 2026-04-29 12:59 | 1.39607 | -77.28975 | 5913 ft | 0 kts | 105° |
| 2026-04-29 13:25 | 1.39607 | -77.28973 | 5914 ft | 1 kts | 105° |
| 2026-04-29 13:25 | 1.39609 | -77.28981 | 5915 ft | 2 kts | 104° |
| 2026-04-29 13:26 | 1.39613 | -77.28996 | 5919 ft | 2 kts | 105° |
| 2026-04-29 13:26 | 1.39620 | -77.29009 | 5920 ft | 2 kts | 146° |
| 2026-04-29 13:26 | 1.39634 | -77.29013 | 5919 ft | 1 kts | 185° |
| 2026-04-29 13:26 | 1.39641 | -77.29012 | 5919 ft | 1 kts | 201° |
| 2026-04-29 13:27 | 1.39644 | -77.29011 | 5919 ft | 0 kts | 195° |
| 2026-04-29 13:31 | 1.39645 | -77.29011 | 5919 ft | 0 kts | 195° |
| 2026-04-29 13:31 | 1.39634 | -77.29014 | 5920 ft | 0 kts | 195° |
| 2026-04-29 13:31 | 1.39639 | -77.29012 | 5919 ft | 1 kts | 195° |
| 2026-04-29 13:32 | 1.39592 | -77.29031 | 5922 ft | 13 kts | 229° |
| 2026-04-29 13:32 | 1.39602 | -77.29097 | 5922 ft | 7 kts | 265° |
| 2026-04-29 13:32 | 1.39510 | -77.29143 | 5927 ft | 26 kts | 191° |
| 2026-04-29 13:32 | 1.39302 | -77.29193 | 5938 ft | 28 kts | 198° |
| 2026-04-29 13:33 | 1.39125 | -77.29243 | 5946 ft | 23 kts | 194° |
| 2026-04-29 13:33 | 1.38975 | -77.29279 | 5952 ft | 20 kts | 193° |
| 2026-04-29 13:33 | 1.38851 | -77.29309 | 5956 ft | 15 kts | 194° |
| 2026-04-29 13:33 | 1.38766 | -77.29328 | 5959 ft | 10 kts | 193° |
| 2026-04-29 13:34 | 1.38703 | -77.29340 | 5961 ft | 7 kts | 178° |
| 2026-04-29 13:34 | 1.38684 | -77.29350 | 5961 ft | 5 kts | 339° |
| 2026-04-29 13:34 | 1.38722 | -77.29346 | 5960 ft | 0 kts | 16° |
| 2026-04-29 13:34 | 1.38731 | -77.29344 | 5960 ft | 7 kts | 16° |
| 2026-04-29 13:35 | 1.39034 | -77.29263 | 5950 ft | 82 kts | 15° |
| 2026-04-29 13:35 | 1.39812 | -77.29056 | 5910 ft | 147 kts | 15° |
| 2026-04-29 13:35 | 1.40926 | -77.28752 | 6124 ft | 173 kts | 15° |
| 2026-04-29 13:35 | 1.42120 | -77.28546 | 6756 ft | 175 kts | 6° |
| 2026-04-29 13:36 | 1.43319 | -77.28494 | 7451 ft | 173 kts | 4° |
| 2026-04-29 13:36 | 1.44532 | -77.28442 | 7955 ft | 177 kts | 4° |
| 2026-04-29 13:36 | 1.45825 | -77.28382 | 8223 ft | 194 kts | 5° |
| 2026-04-29 13:36 | 1.47220 | -77.28298 | 8527 ft | 210 kts | 6° |
| 2026-04-29 13:37 | 1.48753 | -77.28193 | 8764 ft | 232 kts | 5° |
| 2026-04-29 13:37 | 1.50451 | -77.28072 | 9119 ft | 250 kts | 6° |
| 2026-04-29 13:37 | 1.52255 | -77.27939 | 9498 ft | 268 kts | 6° |
| 2026-04-29 13:37 | 1.54183 | -77.27795 | 9892 ft | 285 kts | 6° |
| 2026-04-29 13:38 | 1.56204 | -77.27639 | 10409 ft | 297 kts | 8° |
| 2026-04-29 13:38 | 1.58254 | -77.27200 | 10839 ft | 309 kts | 21° |
| 2026-04-29 13:38 | 1.60225 | -77.26296 | 11509 ft | 311 kts | 32° |
| 2026-04-29 13:38 | 1.62096 | -77.25197 | 12239 ft | 314 kts | 34° |
| 2026-04-29 13:39 | 1.63983 | -77.24058 | 12959 ft | 317 kts | 34° |
| 2026-04-29 13:39 | 1.65864 | -77.22920 | 13671 ft | 320 kts | 34° |
| 2026-04-29 13:39 | 1.67763 | -77.21775 | 14332 ft | 323 kts | 33° |
| 2026-04-29 13:39 | 1.69702 | -77.20613 | 15025 ft | 326 kts | 34° |
| 2026-04-29 13:40 | 1.71652 | -77.19447 | 15671 ft | 329 kts | 34° |
| 2026-04-29 13:40 | 1.73635 | -77.18262 | 16291 ft | 333 kts | 34° |
| 2026-04-29 13:40 | 1.75644 | -77.17062 | 16913 ft | 336 kts | 34° |
| 2026-04-29 13:40 | 1.77654 | -77.15865 | 17546 ft | 339 kts | 33° |
| 2026-04-29 13:41 | 1.79754 | -77.14735 | 18148 ft | 343 kts | 29° |
| 2026-04-29 13:41 | 1.81930 | -77.13708 | 18726 ft | 347 kts | 28° |
| 2026-04-29 13:41 | 1.84130 | -77.12692 | 19293 ft | 350 kts | 28° |
| 2026-04-29 13:41 | 1.86358 | -77.11663 | 19851 ft | 353 kts | 28° |
| 2026-04-29 13:42 | 1.88580 | -77.10635 | 20330 ft | 357 kts | 28° |
| 2026-04-29 13:42 | 1.90859 | -77.09583 | 20790 ft | 361 kts | 28° |
| 2026-04-29 13:42 | 1.93161 | -77.08520 | 21059 ft | 363 kts | 28° |
| 2026-04-29 13:42 | 1.95441 | -77.07465 | 21124 ft | 364 kts | 28° |
| 2026-04-29 13:43 | 1.97742 | -77.06400 | 21111 ft | 364 kts | 28° |
| 2026-04-29 13:43 | 2.00070 | -77.05325 | 21098 ft | 364 kts | 27° |
| 2026-04-29 13:43 | 2.02357 | -77.04267 | 21091 ft | 364 kts | 27° |
| 2026-04-29 13:43 | 2.04669 | -77.03198 | 21081 ft | 363 kts | 27° |
| 2026-04-29 13:44 | 2.06959 | -77.02139 | 21074 ft | 364 kts | 28° |
| 2026-04-29 13:44 | 2.09281 | -77.01065 | 21075 ft | 364 kts | 28° |
| 2026-04-29 13:44 | 2.11579 | -77.00004 | 21072 ft | 364 kts | 28° |
| 2026-04-29 13:44 | 2.13882 | -76.98948 | 21074 ft | 363 kts | 28° |
| 2026-04-29 13:45 | 2.16177 | -76.97890 | 21080 ft | 362 kts | 28° |
| 2026-04-29 13:45 | 2.18471 | -76.96832 | 21083 ft | 362 kts | 28° |
| 2026-04-29 13:45 | 2.20776 | -76.95767 | 21082 ft | 362 kts | 28° |
| 2026-04-29 13:45 | 2.23066 | -76.94707 | 21081 ft | 362 kts | 28° |
| 2026-04-29 13:46 | 2.25359 | -76.93646 | 21080 ft | 362 kts | 28° |
| 2026-04-29 13:46 | 2.27661 | -76.92579 | 21098 ft | 362 kts | 28° |
| 2026-04-29 13:46 | 2.29957 | -76.91516 | 21126 ft | 362 kts | 27° |
| 2026-04-29 13:46 | 2.32234 | -76.90461 | 21142 ft | 363 kts | 27° |
| 2026-04-29 13:47 | 2.34547 | -76.89391 | 21164 ft | 362 kts | 28° |
| 2026-04-29 13:47 | 2.36822 | -76.88338 | 21190 ft | 362 kts | 28° |
| 2026-04-29 13:47 | 2.39142 | -76.87263 | 21199 ft | 362 kts | 28° |
| 2026-04-29 13:47 | 2.41423 | -76.86208 | 21205 ft | 362 kts | 28° |
| 2026-04-29 13:48 | 2.43729 | -76.85139 | 21213 ft | 362 kts | 28° |
| 2026-04-29 13:48 | 2.46004 | -76.84088 | 21207 ft | 361 kts | 27° |
| 2026-04-29 13:48 | 2.48312 | -76.83027 | 21211 ft | 362 kts | 28° |
| 2026-04-29 13:48 | 2.50584 | -76.81983 | 21212 ft | 361 kts | 27° |
| 2026-04-29 13:49 | 2.52889 | -76.80922 | 21213 ft | 362 kts | 27° |
| 2026-04-29 13:49 | 2.55171 | -76.79871 | 21203 ft | 362 kts | 28° |
| 2026-04-29 13:49 | 2.57459 | -76.78814 | 21203 ft | 362 kts | 27° |
| 2026-04-29 13:49 | 2.59749 | -76.77757 | 21202 ft | 362 kts | 27° |
| 2026-04-29 13:50 | 2.62072 | -76.76683 | 21208 ft | 363 kts | 27° |
| 2026-04-29 13:50 | 2.64353 | -76.75631 | 21205 ft | 362 kts | 28° |
| 2026-04-29 13:50 | 2.66656 | -76.74567 | 21120 ft | 357 kts | 27° |
| 2026-04-29 13:50 | 2.68888 | -76.73538 | 20536 ft | 350 kts | 28° |
| 2026-04-29 13:51 | 2.71080 | -76.72525 | 19715 ft | 348 kts | 27° |
| 2026-04-29 13:51 | 2.73268 | -76.71513 | 18908 ft | 345 kts | 28° |
| 2026-04-29 13:51 | 2.75411 | -76.70521 | 18116 ft | 340 kts | 27° |
| 2026-04-29 13:51 | 2.77555 | -76.69531 | 17317 ft | 336 kts | 28° |
| 2026-04-29 13:52 | 2.79663 | -76.68552 | 16547 ft | 332 kts | 27° |
| 2026-04-29 13:52 | 2.81737 | -76.67593 | 15730 ft | 327 kts | 27° |
| 2026-04-29 13:52 | 2.83797 | -76.66639 | 15393 ft | 327 kts | 27° |
| 2026-04-29 13:52 | 2.85856 | -76.65686 | 15102 ft | 327 kts | 27° |
| 2026-04-29 13:53 | 2.87933 | -76.64726 | 14754 ft | 325 kts | 27° |
| 2026-04-29 13:53 | 2.89971 | -76.63783 | 14381 ft | 323 kts | 27° |
| 2026-04-29 13:53 | 2.92025 | -76.62833 | 14016 ft | 321 kts | 27° |
| 2026-04-29 13:53 | 2.94029 | -76.61907 | 13631 ft | 319 kts | 27° |
| 2026-04-29 13:54 | 2.96049 | -76.60973 | 13284 ft | 316 kts | 27° |
| 2026-04-29 13:54 | 2.98050 | -76.60047 | 12895 ft | 315 kts | 27° |
| 2026-04-29 13:54 | 3.00041 | -76.59124 | 12528 ft | 313 kts | 26° |
| 2026-04-29 13:54 | 3.02017 | -76.58210 | 12140 ft | 311 kts | 26° |
| 2026-04-29 13:55 | 3.03986 | -76.57301 | 11790 ft | 309 kts | 26° |
| 2026-04-29 13:55 | 3.05915 | -76.56410 | 11452 ft | 307 kts | 26° |
| 2026-04-29 13:55 | 3.07863 | -76.55511 | 11094 ft | 306 kts | 26° |
| 2026-04-29 13:55 | 3.09802 | -76.54617 | 10723 ft | 305 kts | 26° |
| 2026-04-29 13:56 | 3.11700 | -76.53667 | 10340 ft | 304 kts | 36° |
| 2026-04-29 13:56 | 3.13080 | -76.52132 | 10129 ft | 290 kts | 64° |
| 2026-04-29 13:56 | 3.13776 | -76.50278 | 9863 ft | 283 kts | 73° |
| 2026-04-29 13:56 | 3.14336 | -76.48402 | 9563 ft | 280 kts | 74° |
| 2026-04-29 13:57 | 3.14913 | -76.46581 | 9297 ft | 275 kts | 67° |
| 2026-04-29 13:57 | 3.16067 | -76.45129 | 9184 ft | 263 kts | 34° |
| 2026-04-29 13:57 | 3.17723 | -76.44479 | 9175 ft | 249 kts | 12° |
| 2026-04-29 13:57 | 3.19398 | -76.44196 | 9168 ft | 241 kts | 11° |
| 2026-04-29 13:58 | 3.21098 | -76.43914 | 9157 ft | 250 kts | 11° |
| 2026-04-29 13:58 | 3.22806 | -76.43630 | 8917 ft | 245 kts | 11° |
| 2026-04-29 13:58 | 3.24491 | -76.43345 | 8682 ft | 241 kts | 10° |
| 2026-04-29 13:58 | 3.25055 | -76.43249 | 8608 ft | 240 kts | 11° |
| 2026-04-29 13:59 | 3.26370 | -76.43025 | 8441 ft | 237 kts | 11° |
| 2026-04-29 13:59 | 3.27997 | -76.42748 | 8201 ft | 233 kts | 11° |
| 2026-04-29 13:59 | 3.29579 | -76.42471 | 7944 ft | 229 kts | 11° |
| 2026-04-29 13:59 | 3.31146 | -76.42203 | 7719 ft | 225 kts | 11° |
| 2026-04-29 14:00 | 3.32689 | -76.41937 | 7484 ft | 221 kts | 11° |
| 2026-04-29 14:00 | 3.34186 | -76.41677 | 7277 ft | 218 kts | 11° |
| 2026-04-29 14:00 | 3.35671 | -76.41418 | 7085 ft | 214 kts | 11° |
| 2026-04-29 14:00 | 3.37124 | -76.41164 | 6840 ft | 207 kts | 11° |
| 2026-04-29 14:01 | 3.38555 | -76.40913 | 6384 ft | 210 kts | 11° |
| 2026-04-29 14:01 | 3.39964 | -76.40667 | 6168 ft | 196 kts | 11° |
| 2026-04-29 14:01 | 3.41263 | -76.40441 | 5741 ft | 187 kts | 11° |
| 2026-04-29 14:01 | 3.42507 | -76.40224 | 5442 ft | 174 kts | 11° |
| 2026-04-29 14:02 | 3.43669 | -76.40022 | 5218 ft | 164 kts | 11° |
| 2026-04-29 14:02 | 3.44774 | -76.39832 | 4877 ft | 163 kts | 11° |
| 2026-04-29 14:02 | 3.45893 | -76.39638 | 4516 ft | 162 kts | 11° |
| 2026-04-29 14:02 | 3.47006 | -76.39442 | 4199 ft | 159 kts | 11° |
| 2026-04-29 14:03 | 3.48082 | -76.39246 | 3993 ft | 155 kts | 13° |
| 2026-04-29 14:03 | 3.49150 | -76.39062 | 3830 ft | 156 kts | 11° |
| 2026-04-29 14:03 | 3.50222 | -76.38882 | 3706 ft | 156 kts | 11° |
| 2026-04-29 14:03 | 3.51297 | -76.38692 | 3521 ft | 156 kts | 11° |
| 2026-04-29 14:04 | 3.52375 | -76.38510 | 3292 ft | 154 kts | 11° |
| 2026-04-29 14:04 | 3.53462 | -76.38321 | 3200 ft | 169 kts | 11° |
| 2026-04-29 14:04 | 3.54680 | -76.38117 | 3788 ft | 181 kts | 11° |
| 2026-04-29 14:04 | 3.55892 | -76.37904 | 4675 ft | 178 kts | 11° |
| 2026-04-29 14:05 | 3.57084 | -76.37706 | 5506 ft | 172 kts | 11° |
| 2026-04-29 14:05 | 3.58307 | -76.37495 | 5960 ft | 187 kts | 11° |
| 2026-04-29 14:05 | 3.59645 | -76.37258 | 6398 ft | 204 kts | 11° |
| 2026-04-29 14:05 | 3.61081 | -76.37006 | 6856 ft | 218 kts | 11° |
| 2026-04-29 14:06 | 3.62685 | -76.36726 | 7039 ft | 247 kts | 11° |
| 2026-04-29 14:06 | 3.64459 | -76.36417 | 7105 ft | 264 kts | 11° |
| 2026-04-29 14:06 | 3.66292 | -76.36099 | 7107 ft | 265 kts | 11° |
| 2026-04-29 14:06 | 3.68116 | -76.35783 | 7125 ft | 266 kts | 11° |
| 2026-04-29 14:07 | 3.69948 | -76.35465 | 7141 ft | 266 kts | 11° |
| 2026-04-29 14:07 | 3.71707 | -76.34879 | 7134 ft | 264 kts | 33° |
| 2026-04-29 14:07 | 3.72952 | -76.33561 | 7148 ft | 263 kts | 61° |
| 2026-04-29 14:07 | 3.73478 | -76.31823 | 7140 ft | 264 kts | 88° |
| 2026-04-29 14:08 | 3.73142 | -76.30020 | 7148 ft | 267 kts | 115° |
| 2026-04-29 14:08 | 3.71987 | -76.28578 | 7143 ft | 268 kts | 143° |
| 2026-04-29 14:08 | 3.70264 | -76.27840 | 7159 ft | 271 kts | 172° |
| 2026-04-29 14:08 | 3.68378 | -76.27978 | 7172 ft | 272 kts | 193° |
| 2026-04-29 14:09 | 3.66536 | -76.28442 | 7174 ft | 275 kts | 193° |
| 2026-04-29 14:09 | 3.64649 | -76.28825 | 7153 ft | 275 kts | 188° |
| 2026-04-29 14:09 | 3.62742 | -76.29105 | 7105 ft | 274 kts | 187° |
| 2026-04-29 14:09 | 3.60877 | -76.29352 | 7105 ft | 262 kts | 187° |
| 2026-04-29 14:10 | 3.59061 | -76.29591 | 6759 ft | 262 kts | 187° |
| 2026-04-29 14:10 | 3.57259 | -76.29832 | 6368 ft | 264 kts | 187° |
| 2026-04-29 14:10 | 3.55434 | -76.30077 | 6129 ft | 259 kts | 187° |
| 2026-04-29 14:10 | 3.53681 | -76.30353 | 6100 ft | 245 kts | 190° |
| 2026-04-29 14:11 | 3.52021 | -76.30705 | 6095 ft | 247 kts | 192° |
| 2026-04-29 14:11 | 3.50321 | -76.31083 | 6079 ft | 248 kts | 192° |
| 2026-04-29 14:11 | 3.48638 | -76.31458 | 6082 ft | 248 kts | 192° |
| 2026-04-29 14:11 | 3.46941 | -76.31840 | 6038 ft | 241 kts | 192° |
| 2026-04-29 14:12 | 3.45366 | -76.32194 | 6045 ft | 223 kts | 192° |
| 2026-04-29 14:12 | 3.43881 | -76.32529 | 6062 ft | 213 kts | 192° |
| 2026-04-29 14:12 | 3.42440 | -76.32852 | 6094 ft | 213 kts | 192° |
| 2026-04-29 14:12 | 3.40955 | -76.33186 | 6127 ft | 223 kts | 192° |
| 2026-04-29 14:13 | 3.39429 | -76.33525 | 6121 ft | 226 kts | 192° |
| 2026-04-29 14:13 | 3.37858 | -76.33828 | 6126 ft | 227 kts | 188° |
| 2026-04-29 14:13 | 3.36284 | -76.34078 | 6118 ft | 228 kts | 193° |
| 2026-04-29 14:13 | 3.34935 | -76.34804 | 6066 ft | 219 kts | 232° |
| 2026-04-29 14:14 | 3.34414 | -76.36174 | 6109 ft | 213 kts | 271° |
| 2026-04-29 14:14 | 3.34716 | -76.37588 | 6202 ft | 204 kts | 295° |
| 2026-04-29 14:14 | 3.35358 | -76.38859 | 6158 ft | 203 kts | 298° |
| 2026-04-29 14:14 | 3.36025 | -76.40092 | 6133 ft | 203 kts | 305° |
| 2026-04-29 14:15 | 3.37095 | -76.40948 | 6037 ft | 193 kts | 345° |
| 2026-04-29 14:15 | 3.38366 | -76.41015 | 5865 ft | 173 kts | 9° |
| 2026-04-29 14:15 | 3.39503 | -76.40805 | 5645 ft | 161 kts | 14° |
| 2026-04-29 14:15 | 3.40584 | -76.40569 | 5438 ft | 156 kts | 13° |
| 2026-04-29 14:16 | 3.41655 | -76.40353 | 5241 ft | 155 kts | 12° |
| 2026-04-29 14:16 | 3.42393 | -76.40218 | 5116 ft | 155 kts | 11° |
| 2026-04-29 14:16 | 3.43448 | -76.40035 | 4941 ft | 154 kts | 11° |
| 2026-04-29 14:16 | 3.43995 | -76.39942 | 4855 ft | 154 kts | 11° |
| 2026-04-29 14:17 | 3.44192 | -76.39909 | 4818 ft | 154 kts | 11° |
| 2026-04-29 14:17 | 3.44452 | -76.39865 | 4769 ft | 154 kts | 11° |
| 2026-04-29 14:18 | 3.45129 | -76.39751 | 4644 ft | 153 kts | 11° |
| 2026-04-29 14:18 | 3.46182 | -76.39573 | 4445 ft | 153 kts | 11° |
| 2026-04-29 14:18 | 3.47223 | -76.39395 | 4259 ft | 152 kts | 11° |
| 2026-04-29 14:18 | 3.48275 | -76.39215 | 4058 ft | 152 kts | 11° |
| 2026-04-29 14:19 | 3.49317 | -76.39032 | 3850 ft | 151 kts | 12° |
| 2026-04-29 14:19 | 3.50364 | -76.38841 | 3660 ft | 151 kts | 11° |
| 2026-04-29 14:19 | 3.51405 | -76.38669 | 3477 ft | 150 kts | 10° |
| 2026-04-29 14:19 | 3.52433 | -76.38499 | 3320 ft | 150 kts | 11° |
| 2026-04-29 14:20 | 3.53456 | -76.38320 | 3180 ft | 146 kts | 11° |
| 2026-04-29 14:20 | 3.54361 | -76.38158 | 3171 ft | 109 kts | 12° |
| 2026-04-29 14:20 | 3.54955 | -76.38055 | 3177 ft | 69 kts | 12° |
| 2026-04-29 14:20 | 3.55271 | -76.38003 | 3180 ft | 32 kts | 11° |
| 2026-04-29 14:21 | 3.55483 | -76.37962 | 3182 ft | 29 kts | 10° |
| 2026-04-29 14:21 | 3.55647 | -76.37978 | 3183 ft | 18 kts | 309° |
| 2026-04-29 14:21 | 3.55650 | -76.38088 | 3183 ft | 16 kts | 230° |
| 2026-04-29 14:21 | 3.55545 | -76.38121 | 3182 ft | 16 kts | 190° |
| 2026-04-29 14:22 | 3.55429 | -76.38141 | 3181 ft | 17 kts | 189° |
| 2026-04-29 14:22 | 3.55310 | -76.38160 | 3180 ft | 17 kts | 189° |
| 2026-04-29 14:22 | 3.55188 | -76.38182 | 3179 ft | 18 kts | 190° |
| 2026-04-29 14:22 | 3.55061 | -76.38203 | 3178 ft | 18 kts | 189° |
| 2026-04-29 14:23 | 3.54918 | -76.38230 | 3176 ft | 23 kts | 191° |
| 2026-04-29 14:23 | 3.54739 | -76.38259 | 3174 ft | 27 kts | 190° |
| 2026-04-29 14:23 | 3.54545 | -76.38292 | 3172 ft | 28 kts | 191° |
| 2026-04-29 14:23 | 3.54349 | -76.38326 | 3170 ft | 27 kts | 189° |
| 2026-04-29 14:24 | 3.54164 | -76.38358 | 3169 ft | 25 kts | 190° |
| 2026-04-29 14:24 | 3.54016 | -76.38437 | 3168 ft | 23 kts | 221° |
| 2026-04-29 14:24 | 3.53894 | -76.38538 | 3167 ft | 18 kts | 219° |
| 2026-04-29 14:24 | 3.53806 | -76.38611 | 3166 ft | 14 kts | 219° |
| 2026-04-29 14:25 | 3.53735 | -76.38635 | 3166 ft | 6 kts | 193° |
| 2026-04-29 14:25 | 3.53727 | -76.38637 | 3166 ft | 0 kts | 194° |
| 2026-04-29 14:25 | 3.53723 | -76.38638 | 3166 ft | 0 kts | 192° |